Time;durP1;ratioP1;P1;durP2;ratioP2;P2;SDS_P1;SDS_P2;PMS_P1;PMS_P2;Temp;Humidity;BMP_temperature;BMP_pressure;BME280_temperature;BME280_humidity;BME280_pressure;Samples;Min_cycle;Max_cycle;Signal;HPM_P1;HPM_P2
2020/12/02 00:00:47;;;;;;;183.82;49.92;;;-6.00;99.90;;;;;;5071930;28;20030;-77
2020/12/02 00:03:27;;;;;;;172.20;49.28;;;-6.00;99.90;;;;;;5072778;28;20040;-78
2020/12/02 00:05:55;;;;;;;150.07;45.97;;;-5.90;99.90;;;;;;5073159;28;20539;-78
2020/12/02 00:08:42;;;;;;;164.90;49.97;;;-5.90;99.90;;;;;;5072929;28;20020;-78
2020/12/02 00:11:11;;;;;;;171.00;45.38;;;-5.80;99.90;;;;;;5073084;28;20078;-78
2020/12/02 00:13:40;;;;;;;149.43;44.80;;;-5.80;99.90;;;;;;5071644;28;20012;-77
2020/12/02 00:16:07;;;;;;;162.55;48.50;;;-5.80;99.90;;;;;;5071698;28;20029;-77
2020/12/02 00:18:35;;;;;;;139.45;46.17;;;-5.80;99.90;;;;;;5072836;28;20078;-77
2020/12/02 00:21:01;;;;;;;163.00;46.97;;;-5.70;99.90;;;;;;5072733;28;20039;-78
2020/12/02 00:23:27;;;;;;;147.27;48.05;;;-5.80;99.90;;;;;;5072718;28;20040;-77
2020/12/02 00:25:53;;;;;;;150.27;42.65;;;-5.70;99.90;;;;;;5072856;28;20020;-77
2020/12/02 00:28:19;;;;;;;152.50;47.67;;;-5.80;99.90;;;;;;5072831;28;20032;-78
2020/12/02 00:30:45;;;;;;;144.68;47.90;;;-5.80;99.90;;;;;;5072690;28;20036;-77
2020/12/02 00:33:14;;;;;;;122.72;44.55;;;-5.80;99.90;;;;;;5071403;28;20035;-77
2020/12/02 00:35:41;;;;;;;132.63;46.13;;;-5.80;99.90;;;;;;5071616;28;20025;-77
2020/12/02 00:38:10;;;;;;;153.93;47.03;;;-5.80;99.90;;;;;;5072733;28;20031;-77
2020/12/02 00:40:36;;;;;;;127.72;45.72;;;-5.80;99.90;;;;;;5071491;28;20126;-77
2020/12/02 00:43:02;;;;;;;116.55;42.83;;;-5.80;99.90;;;;;;5072525;28;20488;-77
2020/12/02 00:45:29;;;;;;;119.03;42.50;;;-5.80;99.90;;;;;;5072731;28;20386;-77
2020/12/02 00:47:58;;;;;;;98.38;38.17;;;-5.70;99.90;;;;;;5071310;28;20025;-77
2020/12/02 00:50:24;;;;;;;119.93;38.88;;;-5.70;99.90;;;;;;5072400;28;20021;-78
2020/12/02 00:53:09;;;;;;;108.32;38.00;;;-5.70;99.90;;;;;;5072210;28;20577;-77
2020/12/02 00:55:35;;;;;;;115.20;40.28;;;-5.80;99.90;;;;;;5076239;28;20046;-77
2020/12/02 00:58:03;;;;;;;108.68;39.97;;;-5.70;99.90;;;;;;5076877;28;20461;-77
2020/12/02 01:00:34;;;;;;;131.77;40.90;;;-5.70;99.90;;;;;;5075338;28;20029;-77
2020/12/02 01:03:12;;;;;;;110.90;38.22;;;-5.80;99.90;;;;;;5076276;28;20444;-77
2020/12/02 01:05:39;;;;;;;126.30;40.72;;;-5.80;99.90;;;;;;5076527;28;20059;-77
2020/12/02 01:08:28;;;;;;;137.77;44.67;;;-5.90;99.90;;;;;;5076069;28;20021;-77
2020/12/02 01:11:11;;;;;;;142.52;40.42;;;-5.90;99.90;;;;;;5075041;28;20111;-77
2020/12/02 01:13:37;;;;;;;129.88;40.67;;;-5.90;99.90;;;;;;5076417;28;20031;-78
2020/12/02 01:16:06;;;;;;;131.52;42.63;;;-6.00;99.90;;;;;;5076291;28;20028;-77
2020/12/02 01:18:32;;;;;;;125.13;43.33;;;-5.90;99.90;;;;;;5076200;28;20501;-77
2020/12/02 01:21:31;;;;;;;138.97;45.73;;;-5.90;99.90;;;;;;5074878;28;20036;-77
2020/12/02 01:24:08;;;;;;;134.27;43.17;;;-5.90;99.90;;;;;;5074615;28;20401;-77
2020/12/02 01:26:43;;;;;;;138.73;41.43;;;-5.80;99.90;;;;;;5076131;28;20062;-77
2020/12/02 01:29:21;;;;;;;122.25;39.55;;;-5.90;99.90;;;;;;5074758;28;20062;-77
2020/12/02 01:31:57;;;;;;;129.35;40.33;;;-5.90;99.90;;;;;;5075888;28;20104;-77
2020/12/02 01:34:24;;;;;;;128.27;40.83;;;-5.90;99.90;;;;;;5074732;28;20027;-77
2020/12/02 01:36:58;;;;;;;126.50;41.10;;;-5.90;99.90;;;;;;5075826;28;20031;-78
2020/12/02 01:39:30;;;;;;;139.70;41.80;;;-5.90;99.90;;;;;;5074580;28;20025;-77
2020/12/02 01:41:55;;;;;;;134.07;41.67;;;-5.90;99.90;;;;;;5075621;28;20036;-77
2020/12/02 01:44:22;;;;;;;128.75;39.75;;;-5.80;99.90;;;;;;5075488;28;20062;-77
2020/12/02 01:47:09;;;;;;;100.40;38.67;;;-5.90;99.90;;;;;;5075717;28;20055;-77
2020/12/02 01:49:54;;;;;;;108.50;38.25;;;-5.80;99.90;;;;;;5074400;28;20554;-76
2020/12/02 01:52:50;;;;;;;96.47;33.60;;;-5.80;99.90;;;;;;5075466;28;20027;-77
2020/12/02 01:55:23;;;;;;;112.97;35.30;;;-5.80;99.90;;;;;;5075676;28;20454;-77
2020/12/02 01:57:53;;;;;;;124.25;38.05;;;-5.90;99.90;;;;;;5073092;28;20055;-77
2020/12/02 02:00:28;;;;;;;117.88;36.90;;;-5.90;99.90;;;;;;5073987;28;20024;-77
2020/12/02 02:03:11;;;;;;;96.57;36.20;;;-6.00;99.90;;;;;;5075302;28;20037;-77
2020/12/02 02:05:43;;;;;;;92.50;32.67;;;-6.00;99.90;;;;;;5073123;28;20056;-77
2020/12/02 02:08:10;;;;;;;116.13;34.33;;;-6.10;99.90;;;;;;5074025;28;20048;-77
2020/12/02 02:10:39;;;;;;;95.05;32.83;;;-6.10;99.90;;;;;;5075288;28;20020;-77
2020/12/02 02:13:38;;;;;;;114.47;35.00;;;-6.20;99.90;;;;;;5073842;28;20021;-77
2020/12/02 02:16:07;;;;;;;127.73;35.53;;;-6.20;99.90;;;;;;5075211;28;20355;-77
2020/12/02 02:18:33;;;;;;;95.67;32.93;;;-6.20;99.90;;;;;;5075096;28;20020;-77
2020/12/02 02:21:21;;;;;;;107.50;33.85;;;-6.20;99.90;;;;;;5073185;28;20032;-77
2020/12/02 02:23:46;;;;;;;127.20;36.63;;;-6.20;99.90;;;;;;5074767;28;20048;-77
2020/12/02 02:26:25;;;;;;;101.13;35.80;;;-6.20;99.90;;;;;;5075023;28;20082;-77
2020/12/02 02:28:58;;;;;;;109.13;36.17;;;-6.10;99.90;;;;;;5073292;28;20056;-77
2020/12/02 02:31:27;;;;;;;100.38;33.72;;;-6.10;99.90;;;;;;5073261;28;20024;-77
2020/12/02 02:33:53;;;;;;;101.00;35.05;;;-6.10;99.90;;;;;;5074882;28;20023;-77
2020/12/02 02:36:23;;;;;;;105.63;37.07;;;-6.10;99.90;;;;;;5074759;28;20031;-77
2020/12/02 02:38:49;;;;;;;113.90;36.20;;;-6.10;99.90;;;;;;5074806;28;20055;-77
2020/12/02 02:41:15;;;;;;;96.90;34.30;;;-6.10;99.90;;;;;;5074638;28;20039;-77
2020/12/02 02:43:41;;;;;;;104.00;32.80;;;-6.10;99.90;;;;;;5073275;28;20107;-77
2020/12/02 02:46:07;;;;;;;101.03;33.13;;;-6.20;99.90;;;;;;5074563;28;20024;-77
2020/12/02 02:48:35;;;;;;;99.17;34.17;;;-6.10;99.90;;;;;;5074529;28;20016;-77
2020/12/02 02:51:01;;;;;;;103.70;35.03;;;-6.20;99.90;;;;;;5074311;28;20481;-77
2020/12/02 02:53:26;;;;;;;92.90;33.45;;;-6.20;99.90;;;;;;5074216;28;20098;-78
2020/12/02 02:55:54;;;;;;;93.97;33.50;;;-6.20;99.90;;;;;;5074363;28;20545;-77
2020/12/02 02:58:25;;;;;;;81.05;30.92;;;-6.20;99.90;;;;;;5074354;28;20021;-77
2020/12/02 03:00:58;;;;;;;98.20;33.15;;;-6.20;99.90;;;;;;5073709;28;20082;-77
2020/12/02 03:03:26;;;;;;;93.70;31.90;;;-6.20;99.90;;;;;;5074173;28;20043;-77
2020/12/02 03:05:52;;;;;;;89.72;32.60;;;-6.20;99.90;;;;;;5072845;28;20029;-77
2020/12/02 03:08:18;;;;;;;76.43;30.87;;;-6.20;99.90;;;;;;5074186;28;20035;-77
2020/12/02 03:10:45;;;;;;;79.67;28.57;;;-6.20;99.90;;;;;;5074121;28;20031;-77
2020/12/02 03:13:43;;;;;;;95.77;32.13;;;-6.20;99.90;;;;;;5072733;28;20078;-77
2020/12/02 03:16:27;;;;;;;85.37;27.57;;;-6.30;99.90;;;;;;5074047;28;20493;-77
2020/12/02 03:18:57;;;;;;;81.33;26.53;;;-6.30;99.90;;;;;;5073964;28;20052;-77
2020/12/02 03:21:23;;;;;;;87.53;30.00;;;-6.20;99.90;;;;;;5072254;28;20024;-77
2020/12/02 03:23:51;;;;;;;89.55;28.98;;;-6.30;99.90;;;;;;5072605;28;20023;-77
2020/12/02 03:26:17;;;;;;;92.97;31.17;;;-6.20;99.90;;;;;;5073779;28;20024;-77
2020/12/02 03:28:44;;;;;;;99.10;31.03;;;-6.10;99.90;;;;;;5072403;28;20016;-77
2020/12/02 03:31:12;;;;;;;95.53;27.07;;;-6.10;99.90;;;;;;5072453;28;20505;-77
2020/12/02 03:33:39;;;;;;;90.63;28.70;;;-6.00;99.90;;;;;;5070968;28;20025;-77
2020/12/02 03:36:05;;;;;;;83.43;29.73;;;-5.90;99.90;;;;;;5073594;28;20035;-77
2020/12/02 03:38:31;;;;;;;97.45;33.05;;;-5.90;99.90;;;;;;5073574;28;20028;-77
2020/12/02 03:40:57;;;;;;;105.13;33.55;;;-5.80;99.90;;;;;;5072270;28;20108;-77
2020/12/02 03:43:23;;;;;;;78.97;26.60;;;-5.80;99.90;;;;;;5073322;28;20040;-77
2020/12/02 03:45:49;;;;;;;90.53;28.33;;;-5.80;99.90;;;;;;5073460;28;20029;-77
2020/12/02 03:48:16;;;;;;;99.72;33.58;;;-5.80;99.90;;;;;;5072107;28;20474;-77
2020/12/02 03:50:44;;;;;;;102.10;32.67;;;-5.70;99.90;;;;;;5070982;28;20274;-77
2020/12/02 03:53:10;;;;;;;94.22;31.70;;;-5.60;99.90;;;;;;5073238;28;20032;-77
2020/12/02 03:55:37;;;;;;;105.63;35.63;;;-5.60;99.90;;;;;;5072000;28;20143;-77
2020/12/02 03:58:03;;;;;;;91.53;34.17;;;-5.50;99.90;;;;;;5071869;28;20033;-77
2020/12/02 04:00:29;;;;;;;112.43;34.83;;;-5.50;99.90;;;;;;5072051;28;20033;-77
2020/12/02 04:02:55;;;;;;;115.60;35.47;;;-5.40;99.90;;;;;;5071744;28;20576;-77
2020/12/02 04:05:20;;;;;;;94.25;31.27;;;-5.40;99.90;;;;;;5073166;28;20382;-77
2020/12/02 04:07:46;;;;;;;100.43;33.05;;;-5.30;99.90;;;;;;5073028;28;20073;-77
2020/12/02 04:10:12;;;;;;;101.25;36.30;;;-5.30;99.90;;;;;;5072885;28;20029;-77
2020/12/02 04:12:38;;;;;;;89.50;31.50;;;-5.20;99.90;;;;;;5072923;28;20039;-77
2020/12/02 04:15:05;;;;;;;101.97;34.95;;;-5.20;99.90;;;;;;5073010;28;20012;-77
2020/12/02 04:17:31;;;;;;;101.38;36.30;;;-5.20;99.90;;;;;;5071693;28;20107;-77
2020/12/02 04:19:57;;;;;;;74.10;27.13;;;-5.20;99.90;;;;;;5073050;28;20427;-77
2020/12/02 04:22:23;;;;;;;112.10;36.42;;;-5.20;99.90;;;;;;5071380;28;20367;-77
2020/12/02 04:24:48;;;;;;;95.75;34.65;;;-5.20;99.90;;;;;;5071373;28;20032;-77
2020/12/02 04:27:15;;;;;;;93.88;36.42;;;-5.10;99.90;;;;;;5072735;28;20049;-77
2020/12/02 04:29:41;;;;;;;100.43;37.88;;;-5.00;99.90;;;;;;5063848;28;20024;-77
2020/12/02 04:32:07;;;;;;;99.70;37.55;;;-5.00;99.90;;;;;;5056844;28;20027;-77
2020/12/02 04:34:32;;;;;;;90.47;30.05;;;-5.00;99.90;;;;;;5072866;28;20056;-77
2020/12/02 04:36:58;;;;;;;110.32;37.55;;;-5.10;99.90;;;;;;5072671;28;20059;-77
2020/12/02 04:39:24;;;;;;;99.35;37.30;;;-5.10;99.90;;;;;;5072669;28;20025;-77
2020/12/02 04:41:51;;;;;;;95.72;33.22;;;-5.10;99.90;;;;;;5072609;28;20363;-77
2020/12/02 04:44:18;;;;;;;87.63;32.03;;;-5.10;99.90;;;;;;5072771;28;20021;-77
2020/12/02 04:46:44;;;;;;;96.10;34.97;;;-5.00;99.90;;;;;;5070172;28;20031;-77
2020/12/02 04:49:25;;;;;;;93.25;33.80;;;-5.00;99.90;;;;;;5072644;28;20095;-77
2020/12/02 04:51:56;;;;;;;77.65;30.17;;;-5.00;99.90;;;;;;5072657;28;20032;-77
2020/12/02 04:54:22;;;;;;;95.80;34.30;;;-5.00;99.90;;;;;;5072160;28;20040;-77
2020/12/02 04:56:49;;;;;;;90.78;36.13;;;-5.10;99.90;;;;;;5072599;28;20074;-77
2020/12/02 04:59:15;;;;;;;83.68;31.55;;;-5.10;99.90;;;;;;5071292;28;20021;-77
2020/12/02 05:01:54;;;;;;;91.30;31.90;;;-5.10;99.90;;;;;;5071111;28;20029;-76
2020/12/02 05:04:26;;;;;;;91.18;31.80;;;-5.20;99.90;;;;;;5072481;28;20031;-77
2020/12/02 05:07:15;;;;;;;78.93;30.48;;;-5.20;99.90;;;;;;5072373;28;20432;-77
2020/12/02 05:10:14;;;;;;;91.70;33.03;;;-5.30;99.90;;;;;;5071181;28;20039;-77
2020/12/02 05:12:43;;;;;;;72.70;26.92;;;-5.30;99.90;;;;;;5072423;28;20024;-77
2020/12/02 05:15:08;;;;;;;82.30;31.08;;;-5.30;99.90;;;;;;5072507;28;20021;-77
2020/12/02 05:17:34;;;;;;;74.43;26.08;;;-5.30;99.90;;;;;;5072355;28;20032;-77
2020/12/02 05:20:14;;;;;;;100.45;34.50;;;-5.20;99.90;;;;;;5072380;28;20048;-77
2020/12/02 05:22:42;;;;;;;78.95;29.30;;;-5.30;99.90;;;;;;5071242;28;20539;-77
2020/12/02 05:25:30;;;;;;;86.25;29.42;;;-5.30;99.90;;;;;;5072086;28;20028;-77
2020/12/02 05:28:20;;;;;;;78.03;29.27;;;-5.30;99.90;;;;;;5070996;28;20389;-77
2020/12/02 05:30:46;;;;;;;75.90;24.55;;;-5.30;99.90;;;;;;5072460;28;20029;-77
2020/12/02 05:33:11;;;;;;;74.30;30.77;;;-5.30;99.90;;;;;;5070898;28;20017;-77
2020/12/02 05:35:40;;;;;;;91.90;29.45;;;-5.30;99.90;;;;;;5071003;28;20028;-77
2020/12/02 05:38:09;;;;;;;69.75;27.55;;;-5.30;99.90;;;;;;5072145;28;20020;-77
2020/12/02 05:40:37;;;;;;;72.18;24.95;;;-5.30;99.90;;;;;;5072091;28;20016;-77
2020/12/02 05:43:30;;;;;;;76.55;27.90;;;-5.20;99.90;;;;;;5074508;28;20036;-77
2020/12/02 05:45:57;;;;;;;85.20;26.95;;;-5.20;99.90;;;;;;5075801;28;20062;-77
2020/12/02 05:48:26;;;;;;;84.05;28.52;;;-5.20;99.90;;;;;;5075660;28;20020;-77
2020/12/02 05:50:54;;;;;;;86.60;27.58;;;-5.20;99.90;;;;;;5075608;28;20017;-77
2020/12/02 05:53:39;;;;;;;91.28;32.38;;;-5.20;99.90;;;;;;5075550;28;20024;-77
2020/12/02 05:56:05;;;;;;;77.38;26.92;;;-5.10;99.90;;;;;;5073439;28;20017;-77
2020/12/02 05:58:32;;;;;;;83.55;29.83;;;-5.10;99.90;;;;;;5074244;28;20032;-77
2020/12/02 06:00:58;;;;;;;73.72;26.20;;;-5.10;99.90;;;;;;5075487;28;20021;-77
2020/12/02 06:03:31;;;;;;;74.40;27.15;;;-5.10;99.90;;;;;;5074089;28;20051;-77
2020/12/02 06:06:05;;;;;;;74.20;27.48;;;-5.10;99.90;;;;;;5075456;28;20036;-77
2020/12/02 06:08:34;;;;;;;74.82;28.40;;;-5.10;99.90;;;;;;5073565;28;20100;-77
2020/12/02 06:11:25;;;;;;;65.40;24.90;;;-5.10;99.90;;;;;;5073950;28;20394;-78
2020/12/02 06:14:29;;;;;;;78.82;25.20;;;-5.10;99.90;;;;;;5067621;28;20032;-77
2020/12/02 06:16:55;;;;;;;69.57;27.17;;;-5.10;99.90;;;;;;5066265;28;20553;-77
2020/12/02 06:19:23;;;;;;;78.15;26.20;;;-5.10;99.90;;;;;;5070407;28;20024;-78
2020/12/02 06:21:55;;;;;;;78.80;27.48;;;-5.10;99.90;;;;;;5070499;28;20028;-78
2020/12/02 06:24:43;;;;;;;71.30;26.88;;;-5.10;99.90;;;;;;5072515;28;20667;-77
2020/12/02 06:27:15;;;;;;;85.97;28.85;;;-5.00;99.90;;;;;;5076474;28;20124;-77
2020/12/02 06:29:44;;;;;;;74.68;27.52;;;-5.00;99.90;;;;;;5074967;28;20052;-77
2020/12/02 06:32:22;;;;;;;78.20;24.90;;;-5.00;99.90;;;;;;5074675;28;20650;-77
2020/12/02 06:34:50;;;;;;;264.58;79.10;;;-5.00;99.90;;;;;;5074240;28;20020;-77
2020/12/02 06:37:17;;;;;;;136.82;46.97;;;-5.00;99.90;;;;;;5072897;28;20027;-77
2020/12/02 06:39:57;;;;;;;110.40;37.00;;;-5.00;99.90;;;;;;5073043;28;20020;-77
2020/12/02 06:42:32;;;;;;;80.03;25.58;;;-5.00;99.90;;;;;;5074000;28;20044;-77
2020/12/02 06:45:16;;;;;;;73.25;27.77;;;-5.00;99.90;;;;;;5072840;28;20021;-77
2020/12/02 06:47:51;;;;;;;61.78;25.17;;;-5.00;99.90;;;;;;5072903;28;20047;-77
2020/12/02 06:50:23;;;;;;;77.00;31.52;;;-5.00;99.90;;;;;;5074523;28;20615;-77
2020/12/02 06:52:49;;;;;;;63.67;26.92;;;-5.00;99.90;;;;;;5072507;28;20036;-77
2020/12/02 06:55:25;;;;;;;78.97;25.10;;;-4.90;99.90;;;;;;5074426;28;20020;-77
2020/12/02 06:58:17;;;;;;;59.33;25.85;;;-4.90;99.90;;;;;;5068342;28;20029;-77
2020/12/02 07:00:49;;;;;;;66.88;25.60;;;-4.90;99.90;;;;;;5068120;28;20542;-77
2020/12/02 07:03:30;;;;;;;46.95;17.60;;;-4.90;99.90;;;;;;5071601;28;20090;-78
2020/12/02 07:06:29;;;;;;;66.35;25.38;;;-4.80;99.90;;;;;;5072643;28;20028;-77
2020/12/02 07:09:08;;;;;;;73.97;27.48;;;-4.80;99.90;;;;;;5061465;28;20036;-77
2020/12/02 07:11:34;;;;;;;66.88;25.13;;;-4.80;99.90;;;;;;5054969;28;20510;-78
2020/12/02 07:14:19;;;;;;;79.22;35.70;;;-4.80;99.90;;;;;;5082098;28;20076;-78
2020/12/02 07:16:56;;;;;;;77.82;31.38;;;-4.70;99.90;;;;;;5071907;28;20363;-77
2020/12/02 07:19:31;;;;;;;72.07;28.80;;;-4.70;99.90;;;;;;5076719;28;20032;-77
2020/12/02 07:22:00;;;;;;;71.85;31.73;;;-4.70;99.90;;;;;;5080575;28;20367;-77
2020/12/02 07:24:52;;;;;;;86.55;35.05;;;-4.60;99.90;;;;;;5076943;28;20025;-78
2020/12/02 07:27:21;;;;;;;64.80;25.17;;;-4.70;99.90;;;;;;5083096;28;20028;-78
2020/12/02 07:30:03;;;;;;;70.30;27.83;;;-4.70;99.90;;;;;;5081638;28;20484;-78
2020/12/02 07:32:29;;;;;;;70.03;29.80;;;-4.70;99.90;;;;;;5083718;28;20097;-77
2020/12/02 07:35:03;;;;;;;69.78;26.80;;;-4.70;99.90;;;;;;5075231;28;20474;-78
2020/12/02 07:37:29;;;;;;;69.78;26.73;;;-4.70;99.90;;;;;;5086680;28;20024;-77
2020/12/02 07:39:58;;;;;;;70.47;29.00;;;-4.70;99.90;;;;;;5083206;28;20063;-77
2020/12/02 07:42:38;;;;;;;76.72;33.78;;;-4.70;99.90;;;;;;5070701;28;20036;-77
2020/12/02 07:45:14;;;;;;;63.17;24.23;;;-4.70;99.90;;;;;;5073637;28;20032;-78
2020/12/02 07:48:04;;;;;;;65.30;27.25;;;-4.70;99.90;;;;;;5071665;28;20032;-78
2020/12/02 07:50:43;;;;;;;82.40;33.95;;;-4.60;99.90;;;;;;5071476;28;20036;-78
2020/12/02 07:53:12;;;;;;;82.45;30.13;;;-4.60;99.90;;;;;;5071414;28;20029;-78
2020/12/02 07:55:44;;;;;;;60.47;27.55;;;-4.60;99.90;;;;;;5074333;28;20025;-77
2020/12/02 07:58:36;;;;;;;50.13;21.05;;;-4.70;99.90;;;;;;5082092;28;20048;-78
2020/12/02 08:01:23;;;;;;;58.67;27.85;;;-4.70;99.90;;;;;;5086643;28;20092;-78
2020/12/02 08:03:53;;;;;;;91.47;36.45;;;-4.60;99.90;;;;;;5083034;28;20332;-78
2020/12/02 08:06:43;;;;;;;56.78;25.58;;;-4.60;99.90;;;;;;5078727;28;20020;-78
2020/12/02 08:09:09;;;;;;;57.97;25.50;;;-4.60;99.90;;;;;;5077882;28;20079;-78
2020/12/02 08:11:36;;;;;;;69.85;27.80;;;-4.60;99.90;;;;;;5080564;28;20485;-78
2020/12/02 08:14:02;;;;;;;107.10;40.88;;;-4.60;99.90;;;;;;5066993;28;20047;-78
2020/12/02 08:16:43;;;;;;;87.88;35.05;;;-4.50;99.90;;;;;;5080568;28;20020;-78
2020/12/02 08:19:11;;;;;;;47.08;20.08;;;-4.50;99.90;;;;;;5062492;28;20056;-78
2020/12/02 08:21:40;;;;;;;65.15;25.00;;;-4.50;99.90;;;;;;5077626;28;20111;-77
2020/12/02 08:24:40;;;;;;;119.47;45.05;;;-4.50;99.90;;;;;;5074118;28;20413;-78
2020/12/02 08:27:08;;;;;;;77.22;27.25;;;-4.50;99.90;;;;;;5080630;28;20469;-78
2020/12/02 08:29:34;;;;;;;110.40;36.75;;;-4.50;99.90;;;;;;5071897;28;20250;-78
2020/12/02 08:32:16;;;;;;;145.57;46.67;;;-4.50;99.90;;;;;;5087246;28;21029;-78
2020/12/02 08:34:42;;;;;;;162.32;50.33;;;-4.50;99.90;;;;;;5077579;28;20492;-78
2020/12/02 08:37:20;;;;;;;194.38;59.67;;;-4.50;99.90;;;;;;5082982;28;20028;-78
2020/12/02 08:39:54;;;;;;;148.50;46.72;;;-4.40;99.90;;;;;;5091559;28;20099;-78
2020/12/02 08:42:32;;;;;;;132.20;42.20;;;-4.40;99.90;;;;;;5075040;28;20041;-78
2020/12/02 08:45:10;;;;;;;159.25;50.25;;;-4.40;99.90;;;;;;5062200;28;20439;-78
2020/12/02 08:47:37;;;;;;;103.68;40.78;;;-4.30;99.90;;;;;;5083012;28;20371;-78
2020/12/02 08:50:07;;;;;;;77.20;28.80;;;-4.40;99.90;;;;;;5059288;28;20107;-78
2020/12/02 08:52:34;;;;;;;82.15;30.80;;;-4.40;99.90;;;;;;5077271;28;20028;-77
2020/12/02 08:55:00;;;;;;;84.32;32.00;;;-4.40;99.90;;;;;;5080543;28;20028;-77
2020/12/02 08:57:26;;;;;;;64.40;24.02;;;-4.30;99.90;;;;;;5072011;28;20502;-78
2020/12/02 08:59:54;;;;;;;112.00;37.85;;;-4.30;99.90;;;;;;5079126;28;20036;-77
2020/12/02 09:02:20;;;;;;;88.00;29.30;;;-4.30;99.90;;;;;;5070733;28;20037;-78
2020/12/02 09:04:46;;;;;;;94.45;37.63;;;-4.20;99.90;;;;;;5045029;28;20089;-79
2020/12/02 09:07:14;;;;;;;95.93;35.90;;;-4.20;99.90;;;;;;5070701;28;20028;-78
2020/12/02 09:09:40;;;;;;;61.70;26.08;;;-4.20;99.90;;;;;;5091902;28;20031;-78
2020/12/02 09:12:09;;;;;;;69.38;25.98;;;-4.10;99.90;;;;;;5084720;28;20012;-78
2020/12/02 09:14:36;;;;;;;66.30;25.90;;;-4.10;99.90;;;;;;5067904;28;20075;-78
2020/12/02 09:17:03;;;;;;;71.95;30.90;;;-4.10;99.90;;;;;;5072165;28;20038;-77
2020/12/02 09:19:29;;;;;;;56.00;22.25;;;-4.10;99.90;;;;;;5073997;28;20021;-78
2020/12/02 09:21:55;;;;;;;65.18;25.15;;;-4.10;99.90;;;;;;5056385;28;20474;-78
2020/12/02 09:24:21;;;;;;;74.93;27.02;;;-4.00;99.90;;;;;;5075475;28;20052;-77
2020/12/02 09:26:47;;;;;;;68.10;27.10;;;-4.00;99.90;;;;;;5078563;28;20059;-77
2020/12/02 09:29:14;;;;;;;65.22;25.08;;;-4.00;99.90;;;;;;5073769;28;20380;-77
2020/12/02 09:31:41;;;;;;;74.18;28.88;;;-3.90;99.90;;;;;;5075128;28;20490;-77
2020/12/02 09:34:11;;;;;;;72.00;26.83;;;-3.80;99.90;;;;;;5071625;28;20036;-79
2020/12/02 09:36:37;;;;;;;64.97;23.83;;;-3.90;99.90;;;;;;5071487;28;20541;-78
2020/12/02 09:39:08;;;;;;;60.13;24.75;;;-3.80;99.90;;;;;;5083160;28;20024;-78
2020/12/02 09:41:45;;;;;;;53.67;22.52;;;-3.80;99.90;;;;;;5082856;28;20376;-78
2020/12/02 09:44:30;;;;;;;57.20;22.70;;;-3.80;99.90;;;;;;5087608;28;20077;-78
2020/12/02 09:47:08;;;;;;;55.67;23.88;;;-3.80;99.90;;;;;;5085109;28;20028;-78
2020/12/02 09:49:36;;;;;;;89.03;33.97;;;-3.80;99.90;;;;;;5075778;28;20044;-78
2020/12/02 09:52:12;;;;;;;85.05;33.28;;;-3.80;99.90;;;;;;5084791;28;20031;-78
2020/12/02 09:54:41;;;;;;;70.63;26.90;;;-3.80;99.90;;;;;;5088598;28;20033;-78
2020/12/02 09:57:24;;;;;;;44.60;20.80;;;-3.80;99.90;;;;;;5081052;28;20096;-78
2020/12/02 09:59:59;;;;;;;59.13;22.60;;;-3.80;99.90;;;;;;5076062;28;20032;-78
2020/12/02 10:03:01;;;;;;;47.25;19.38;;;-3.80;99.90;;;;;;5087522;28;20485;-78
2020/12/02 10:05:43;;;;;;;45.73;19.73;;;-3.80;99.90;;;;;;5081374;28;20020;-79
2020/12/02 10:08:26;;;;;;;46.72;20.05;;;-3.80;99.90;;;;;;5087643;28;20028;-78
2020/12/02 10:11:16;;;;;;;54.80;23.02;;;-3.80;99.90;;;;;;5086514;28;20024;-78
2020/12/02 10:14:00;;;;;;;69.30;27.77;;;-3.80;99.90;;;;;;5087698;28;20515;-77
2020/12/02 10:16:39;;;;;;;65.20;25.13;;;-3.70;99.90;;;;;;5081008;28;20115;-77
2020/12/02 10:19:37;;;;;;;47.33;18.27;;;-3.60;99.90;;;;;;5075664;28;20099;-77
2020/12/02 10:22:41;;;;;;;57.10;20.58;;;-3.60;99.90;;;;;;5075599;28;20048;-77
2020/12/02 10:25:21;;;;;;;59.30;23.23;;;-3.60;99.90;;;;;;5072580;28;20063;-77
2020/12/02 10:28:12;;;;;;;73.68;28.70;;;-3.50;99.90;;;;;;5074599;28;20501;-77
2020/12/02 10:30:54;;;;;;;59.50;22.70;;;-3.50;99.90;;;;;;5084371;28;20501;-77
2020/12/02 10:33:39;;;;;;;49.25;19.45;;;-3.50;99.90;;;;;;5056291;28;20032;-78
2020/12/02 10:36:05;;;;;;;54.70;20.95;;;-3.60;99.90;;;;;;5072323;28;20029;-78
2020/12/02 10:38:47;;;;;;;59.78;21.40;;;-3.50;99.90;;;;;;5085461;28;20024;-78
2020/12/02 10:41:32;;;;;;;69.70;25.33;;;-3.60;99.90;;;;;;5085339;28;20027;-78
2020/12/02 10:44:15;;;;;;;57.67;20.67;;;-3.60;99.90;;;;;;5091799;28;20497;-78
2020/12/02 10:47:39;;;;;;;70.53;26.23;;;-3.60;99.90;;;;;;5089679;28;20032;-78
2020/12/02 10:50:07;;;;;;;48.00;20.58;;;-3.70;99.90;;;;;;5072290;28;20048;-78
2020/12/02 10:52:33;;;;;;;76.18;27.67;;;-3.70;99.90;;;;;;5067584;28;20557;-78
2020/12/02 10:55:02;;;;;;;53.00;20.15;;;-3.70;99.90;;;;;;5084935;28;20377;-77
2020/12/02 10:57:29;;;;;;;66.43;24.67;;;-3.70;99.90;;;;;;5082097;28;20031;-78
2020/12/02 10:59:57;;;;;;;83.50;30.70;;;-3.70;99.90;;;;;;5080395;28;20032;-78
2020/12/02 11:02:29;;;;;;;60.53;22.15;;;-3.70;99.90;;;;;;5080560;28;20044;-78
2020/12/02 11:04:55;;;;;;;56.77;22.93;;;-3.70;99.90;;;;;;5067838;28;20031;-78
2020/12/02 11:07:30;;;;;;;171.10;57.17;;;-3.70;99.90;;;;;;5080980;28;20032;-78
2020/12/02 11:10:15;;;;;;;95.93;36.15;;;-3.70;99.90;;;;;;5089541;28;20141;-78
2020/12/02 11:12:59;;;;;;;58.20;22.50;;;-3.70;99.90;;;;;;5076725;28;20047;-76
2020/12/02 11:15:47;;;;;;;58.78;21.75;;;-3.70;99.90;;;;;;5086647;28;20496;-77
2020/12/02 11:18:29;;;;;;;101.80;36.28;;;-3.70;99.90;;;;;;5080650;28;20022;-76
2020/12/02 11:21:24;;;;;;;131.88;44.67;;;-3.60;99.90;;;;;;5077194;28;20028;-76
2020/12/02 11:23:55;;;;;;;128.05;38.83;;;-3.50;99.90;;;;;;5077669;28;20037;-76
2020/12/02 11:26:36;;;;;;;103.38;33.60;;;-3.50;99.90;;;;;;5089624;28;20031;-76
2020/12/02 11:29:06;;;;;;;172.32;53.38;;;-3.50;99.90;;;;;;5066858;28;20035;-77
2020/12/02 11:31:46;;;;;;;131.98;44.63;;;-3.40;99.90;;;;;;5080774;28;20052;-76
2020/12/02 11:34:30;;;;;;;81.18;29.70;;;-3.40;99.90;;;;;;5073008;28;20037;-76
2020/12/02 11:37:13;;;;;;;75.05;28.65;;;-3.40;99.90;;;;;;5081291;28;20073;-77
2020/12/02 11:39:38;;;;;;;71.32;29.15;;;-3.50;99.90;;;;;;5084558;28;20107;-76
2020/12/02 11:42:19;;;;;;;68.50;26.63;;;-3.40;99.90;;;;;;5092145;28;20549;-76
2020/12/02 11:44:45;;;;;;;96.50;36.30;;;-3.50;99.90;;;;;;5073760;28;20035;-77
2020/12/02 11:47:35;;;;;;;70.38;30.45;;;-3.50;99.90;;;;;;5087093;28;20111;-76
2020/12/02 11:50:16;;;;;;;55.85;22.25;;;-3.50;99.90;;;;;;5080037;28;20033;-76
2020/12/02 11:52:57;;;;;;;49.00;20.50;;;-3.60;99.90;;;;;;5079423;28;20028;-77
2020/12/02 11:55:22;;;;;;;53.75;22.30;;;-3.60;99.90;;;;;;5084597;28;20111;-77
2020/12/02 11:57:53;;;;;;;50.55;20.48;;;-3.60;99.90;;;;;;5081555;28;20426;-76
2020/12/02 12:00:19;;;;;;;61.78;27.13;;;-3.60;99.90;;;;;;5080232;28;20020;-77
2020/12/02 12:02:47;;;;;;;46.33;22.98;;;-3.60;99.90;;;;;;5088464;28;20040;-76
2020/12/02 12:05:32;;;;;;;59.08;22.52;;;-3.60;99.90;;;;;;5084614;28;20477;-76
2020/12/02 12:08:00;;;;;;;57.58;22.10;;;-3.60;99.90;;;;;;5085329;28;20097;-76
2020/12/02 12:10:51;;;;;;;46.40;20.00;;;-3.60;99.90;;;;;;5083415;28;20085;-76
2020/12/02 12:13:30;;;;;;;47.45;21.45;;;-3.70;99.90;;;;;;5090800;28;20107;-76
2020/12/02 12:16:07;;;;;;;87.30;32.20;;;-3.70;99.90;;;;;;5087520;28;20028;-76
2020/12/02 12:18:39;;;;;;;53.70;21.98;;;-3.70;99.90;;;;;;5084950;28;20055;-76
2020/12/02 12:21:38;;;;;;;43.42;17.75;;;-3.70;99.90;;;;;;5078552;28;20036;-76
2020/12/02 12:24:11;;;;;;;58.00;22.15;;;-3.80;99.90;;;;;;5084641;28;20040;-76
2020/12/02 12:26:42;;;;;;;64.25;24.77;;;-3.70;99.90;;;;;;5076126;28;20024;-76
2020/12/02 12:29:10;;;;;;;45.17;18.98;;;-3.70;99.90;;;;;;5087836;28;20017;-77
2020/12/02 12:31:54;;;;;;;62.38;23.73;;;-3.60;99.90;;;;;;5076390;28;20017;-76
2020/12/02 12:34:47;;;;;;;75.18;32.47;;;-3.60;99.90;;;;;;5074940;28;20096;-76
2020/12/02 12:37:16;;;;;;;47.00;19.30;;;-3.60;99.90;;;;;;5082489;28;20028;-76
2020/12/02 12:39:47;;;;;;;49.38;21.58;;;-3.60;99.90;;;;;;5076719;28;20078;-76
2020/12/02 12:42:15;;;;;;;46.08;20.88;;;-3.70;99.90;;;;;;5080370;28;20415;-76
2020/12/02 12:44:41;;;;;;;58.67;21.13;;;-3.80;99.90;;;;;;5080583;28;20025;-76
2020/12/02 12:47:33;;;;;;;52.10;20.95;;;-3.70;99.90;;;;;;5074826;28;21198;-76
2020/12/02 12:50:01;;;;;;;57.88;23.15;;;-3.80;99.90;;;;;;5075276;28;20390;-76
2020/12/02 12:52:32;;;;;;;51.20;22.88;;;-3.70;99.90;;;;;;5082462;28;20425;-76
2020/12/02 12:54:58;;;;;;;54.65;21.85;;;-3.70;99.90;;;;;;5092736;28;20385;-76